Time;durP1;ratioP1;P1;durP2;ratioP2;P2;SDS_P1;SDS_P2;PMS_P1;PMS_P2;Temp;Humidity;BMP_temperature;BMP_pressure;BME280_temperature;BME280_humidity;BME280_pressure;Samples;Min_cycle;Max_cycle;Signal;HPM_P1;HPM_P2
2022/04/08 00:01:25;;;;;;;11.55;1.60;;;4.80;99.90;;;;;;5059275;28;20077;-72
2022/04/08 00:03:52;;;;;;;7.32;1.42;;;4.70;99.90;;;;;;5057199;28;20036;-73
2022/04/08 00:06:18;;;;;;;6.68;2.10;;;4.70;99.90;;;;;;5056750;28;20086;-73
2022/04/08 00:08:45;;;;;;;10.20;2.10;;;4.60;99.90;;;;;;5057146;28;20099;-73
2022/04/08 00:11:11;;;;;;;11.95;2.40;;;4.60;99.90;;;;;;5056480;28;20451;-72
2022/04/08 00:13:36;;;;;;;7.22;2.28;;;4.60;99.90;;;;;;5056541;28;20138;-72
2022/04/08 00:16:02;;;;;;;12.85;2.08;;;4.60;99.90;;;;;;5039090;28;20051;-73
2022/04/08 00:18:29;;;;;;;16.35;2.97;;;4.70;99.90;;;;;;5056643;28;20083;-72
2022/04/08 00:20:54;;;;;;;11.73;2.22;;;4.70;99.90;;;;;;5039344;28;20079;-73
2022/04/08 00:23:20;;;;;;;17.23;3.40;;;4.70;99.90;;;;;;5056847;28;20397;-72
2022/04/08 00:25:45;;;;;;;23.77;3.75;;;4.40;99.90;;;;;;5055991;28;20067;-72
2022/04/08 00:28:11;;;;;;;17.38;2.85;;;4.20;99.90;;;;;;5056748;28;20493;-73
2022/04/08 00:30:36;;;;;;;11.63;2.97;;;4.20;99.90;;;;;;5055893;28;20040;-72
2022/04/08 00:33:02;;;;;;;10.82;2.80;;;4.20;99.90;;;;;;5056559;28;20125;-73
2022/04/08 00:35:28;;;;;;;17.33;2.97;;;4.30;99.90;;;;;;5055927;28;20079;-73
2022/04/08 00:37:53;;;;;;;15.30;2.55;;;4.30;99.90;;;;;;5056349;28;20128;-73
2022/04/08 00:40:19;;;;;;;13.75;2.08;;;4.30;99.90;;;;;;5056149;28;20120;-73
2022/04/08 00:42:44;;;;;;;9.00;2.38;;;4.40;99.90;;;;;;5055844;28;20033;-72
2022/04/08 00:45:10;;;;;;;20.20;3.35;;;4.50;99.90;;;;;;5054486;28;20045;-73
2022/04/08 00:47:37;;;;;;;19.20;3.38;;;4.40;99.90;;;;;;5056052;28;20044;-73
2022/04/08 00:50:07;;;;;;;19.65;3.42;;;4.50;99.90;;;;;;5066804;28;20119;-73
2022/04/08 00:52:33;;;;;;;16.92;2.90;;;4.50;99.90;;;;;;5064934;28;20045;-73
2022/04/08 00:55:03;;;;;;;12.98;3.05;;;4.60;99.90;;;;;;5056037;28;20151;-73
2022/04/08 00:57:29;;;;;;;15.15;2.85;;;4.60;99.90;;;;;;5055577;28;20041;-73
2022/04/08 00:59:55;;;;;;;20.63;3.38;;;4.60;99.90;;;;;;5056053;28;20055;-73
2022/04/08 01:02:21;;;;;;;15.48;3.65;;;4.70;99.90;;;;;;5065206;28;20040;-72
2022/04/08 01:04:47;;;;;;;23.92;4.15;;;4.70;99.90;;;;;;5058464;28;20044;-73
2022/04/08 01:07:12;;;;;;;18.00;3.78;;;4.60;99.90;;;;;;5055827;28;20498;-73
2022/04/08 01:09:38;;;;;;;17.23;3.38;;;4.70;99.90;;;;;;5055879;28;20037;-72
2022/04/08 01:12:04;;;;;;;24.33;3.90;;;4.70;99.90;;;;;;5055596;28;20041;-73
2022/04/08 01:14:29;;;;;;;15.57;2.80;;;4.70;99.90;;;;;;5055979;28;20047;-73
2022/04/08 01:16:55;;;;;;;16.25;2.97;;;4.80;99.90;;;;;;5055295;28;20362;-72
2022/04/08 01:19:20;;;;;;;21.73;3.67;;;4.80;99.90;;;;;;5055821;28;20086;-72
2022/04/08 01:21:46;;;;;;;18.55;3.58;;;4.80;99.90;;;;;;5055545;28;20439;-73
2022/04/08 01:24:15;;;;;;;19.30;3.20;;;4.80;99.90;;;;;;5055396;28;20041;-72
2022/04/08 01:26:41;;;;;;;25.58;5.78;;;4.80;99.90;;;;;;5055048;28;20048;-74
2022/04/08 01:29:07;;;;;;;21.42;3.60;;;4.80;99.90;;;;;;5054907;28;20178;-73
2022/04/08 01:31:33;;;;;;;15.98;3.95;;;4.80;99.90;;;;;;5037463;28;20044;-73
2022/04/08 01:33:58;;;;;;;19.13;3.60;;;4.90;99.90;;;;;;5038068;28;20051;-73
2022/04/08 01:36:24;;;;;;;26.83;3.90;;;4.90;99.90;;;;;;5055012;28;20055;-74
2022/04/08 01:38:49;;;;;;;22.45;3.88;;;4.90;99.90;;;;;;5054303;28;20079;-74
2022/04/08 01:41:20;;;;;;;20.67;3.63;;;5.00;99.90;;;;;;5054925;28;20043;-73
2022/04/08 01:43:45;;;;;;;20.27;3.63;;;5.10;99.90;;;;;;5055081;28;20392;-73
2022/04/08 01:46:11;;;;;;;11.85;3.08;;;5.30;99.90;;;;;;5054846;28;20232;-73
2022/04/08 01:48:37;;;;;;;14.32;3.50;;;5.10;99.90;;;;;;5055115;28;20115;-72
2022/04/08 01:51:02;;;;;;;10.82;2.40;;;4.20;99.90;;;;;;5054351;28;20044;-73
2022/04/08 01:53:28;;;;;;;16.30;3.28;;;3.90;99.90;;;;;;5037747;28;20459;-72
2022/04/08 01:55:53;;;;;;;20.55;4.57;;;3.90;99.90;;;;;;5054410;28;20037;-71
2022/04/08 01:58:19;;;;;;;21.05;4.07;;;3.90;99.90;;;;;;5054730;28;20406;-72
2022/04/08 02:00:45;;;;;;;16.15;3.75;;;3.90;99.90;;;;;;5037185;28;20041;-72
2022/04/08 02:03:10;;;;;;;22.38;4.45;;;3.90;99.90;;;;;;5054164;28;20041;-73
2022/04/08 02:05:36;;;;;;;16.67;4.40;;;3.90;99.90;;;;;;5055700;28;20041;-74
2022/04/08 02:08:02;;;;;;;19.88;4.97;;;3.90;99.90;;;;;;5055919;28;20037;-72
2022/04/08 02:10:27;;;;;;;17.38;3.70;;;4.10;99.90;;;;;;5057740;28;20047;-72
2022/04/08 02:12:53;;;;;;;20.75;4.47;;;4.00;99.90;;;;;;5074827;28;20072;-72
2022/04/08 02:15:26;;;;;;;14.45;3.70;;;4.10;99.90;;;;;;5069119;28;20047;-71
2022/04/08 02:17:51;;;;;;;20.38;3.78;;;4.50;99.90;;;;;;5054525;28;20084;-73
2022/04/08 02:20:17;;;;;;;26.88;4.65;;;4.80;99.90;;;;;;5054916;28;20084;-73
2022/04/08 02:22:43;;;;;;;20.77;4.18;;;4.70;99.90;;;;;;5058235;28;20445;-73
2022/04/08 02:25:11;;;;;;;26.60;4.28;;;4.70;99.90;;;;;;5057932;28;20041;-70
2022/04/08 02:27:37;;;;;;;25.73;3.78;;;4.70;99.90;;;;;;5039448;28;20087;-72
2022/04/08 02:30:03;;;;;;;18.13;4.68;;;4.70;99.90;;;;;;5067856;28;20048;-71
2022/04/08 02:32:28;;;;;;;20.27;4.55;;;4.70;99.90;;;;;;5054731;28;20041;-72
2022/04/08 02:34:54;;;;;;;17.40;3.70;;;4.70;99.90;;;;;;5054233;28;20475;-71
2022/04/08 02:37:20;;;;;;;14.45;3.47;;;4.70;99.90;;;;;;5073751;28;20157;-73
2022/04/08 02:39:45;;;;;;;21.50;3.58;;;4.70;99.90;;;;;;5074785;28;20048;-73
2022/04/08 02:42:11;;;;;;;15.88;3.42;;;4.70;99.90;;;;;;5057087;28;20052;-72
2022/04/08 02:44:36;;;;;;;10.77;3.03;;;4.60;99.90;;;;;;5058381;28;20120;-72
2022/04/08 02:47:02;;;;;;;20.17;4.97;;;4.70;99.90;;;;;;5055145;28;20037;-72
2022/04/08 02:49:28;;;;;;;14.98;3.00;;;4.80;99.90;;;;;;5054800;28;20099;-73
2022/04/08 02:51:54;;;;;;;17.88;3.10;;;4.80;99.90;;;;;;5066119;28;20046;-73
2022/04/08 02:54:19;;;;;;;24.85;4.95;;;4.90;99.90;;;;;;5072982;28;20042;-72
2022/04/08 02:56:45;;;;;;;15.18;2.97;;;4.90;99.90;;;;;;5070878;28;20083;-73
2022/04/08 02:59:10;;;;;;;15.52;3.55;;;5.00;99.90;;;;;;5054264;28;20056;-72
2022/04/08 03:01:36;;;;;;;17.05;3.42;;;5.00;99.90;;;;;;5054311;28;20049;-72
2022/04/08 03:04:05;;;;;;;18.77;3.85;;;5.00;99.90;;;;;;5057562;28;20355;-71
2022/04/08 03:06:31;;;;;;;12.15;3.33;;;5.00;99.90;;;;;;5022866;28;20049;-72
2022/04/08 03:08:57;;;;;;;10.80;3.58;;;5.00;99.90;;;;;;5057740;28;20462;-72
2022/04/08 03:11:22;;;;;;;9.15;2.92;;;5.10;99.90;;;;;;5057310;28;20040;-72
2022/04/08 03:13:48;;;;;;;12.00;2.40;;;5.10;99.90;;;;;;5057955;28;20048;-73
2022/04/08 03:16:14;;;;;;;7.80;2.20;;;4.20;99.90;;;;;;5057946;28;20056;-71
2022/04/08 03:18:40;;;;;;;9.85;2.90;;;3.70;99.90;;;;;;5040235;28;20045;-73
2022/04/08 03:21:06;;;;;;;6.75;2.10;;;3.50;99.90;;;;;;5058288;28;20342;-72
2022/04/08 03:23:31;;;;;;;2.67;1.40;;;3.30;99.90;;;;;;5039871;28;20455;-73
2022/04/08 03:25:57;;;;;;;5.90;2.03;;;3.00;99.90;;;;;;5057423;28;20405;-71
2022/04/08 03:28:22;;;;;;;6.93;2.15;;;3.00;99.90;;;;;;5057723;28;20033;-73
2022/04/08 03:30:48;;;;;;;5.90;1.25;;;3.00;99.90;;;;;;5057792;28;20033;-73
2022/04/08 03:33:13;;;;;;;9.43;3.75;;;3.10;99.90;;;;;;5040095;28;20036;-72
2022/04/08 03:35:39;;;;;;;9.98;1.98;;;3.10;99.90;;;;;;5057168;28;20378;-72
2022/04/08 03:38:05;;;;;;;8.88;2.55;;;3.20;99.90;;;;;;5057383;28;20451;-72
2022/04/08 03:40:31;;;;;;;9.57;2.60;;;3.30;99.90;;;;;;5056885;28;20435;-73
2022/04/08 03:42:56;;;;;;;5.53;1.98;;;3.40;99.90;;;;;;5056724;28;20056;-72
2022/04/08 03:45:24;;;;;;;7.60;2.03;;;3.50;99.90;;;;;;5057372;28;20033;-72
2022/04/08 03:47:50;;;;;;;12.68;1.90;;;3.40;99.90;;;;;;5040199;28;20127;-73
2022/04/08 03:50:16;;;;;;;7.63;2.80;;;3.60;99.90;;;;;;5057347;28;20565;-72
2022/04/08 03:52:42;;;;;;;7.75;2.20;;;3.60;99.90;;;;;;5057254;28;20058;-72
2022/04/08 03:55:08;;;;;;;6.95;1.90;;;3.70;99.90;;;;;;5055987;28;20095;-73
2022/04/08 03:57:34;;;;;;;7.25;1.95;;;3.80;99.90;;;;;;5057464;28;20048;-74
2022/04/08 03:59:59;;;;;;;6.85;2.05;;;4.10;99.90;;;;;;5057124;28;20108;-73
2022/04/08 04:02:25;;;;;;;7.88;2.35;;;4.10;99.90;;;;;;5056675;28;20040;-72
2022/04/08 04:04:50;;;;;;;9.88;3.42;;;4.20;99.90;;;;;;5057214;28;20107;-73
2022/04/08 04:07:17;;;;;;;7.65;2.90;;;4.20;99.90;;;;;;5056733;28;20049;-73
2022/04/08 04:09:44;;;;;;;11.52;3.47;;;4.00;99.90;;;;;;5057546;28;20102;-73
2022/04/08 04:12:10;;;;;;;9.80;2.80;;;3.80;99.90;;;;;;5063704;28;20140;-72
2022/04/08 04:14:36;;;;;;;5.18;2.58;;;3.70;99.90;;;;;;5076640;28;20370;-72
2022/04/08 04:17:01;;;;;;;8.82;2.30;;;3.50;99.90;;;;;;5076794;28;20040;-74
2022/04/08 04:19:27;;;;;;;12.18;2.55;;;3.50;99.90;;;;;;5063693;28;20439;-73
2022/04/08 04:21:52;;;;;;;7.45;2.45;;;3.50;99.90;;;;;;5064885;28;20032;-72
2022/04/08 04:24:18;;;;;;;6.93;2.35;;;3.60;99.90;;;;;;5055280;28;20378;-72
2022/04/08 04:26:43;;;;;;;8.38;2.72;;;3.60;99.90;;;;;;5056567;28;20094;-74
2022/04/08 04:29:11;;;;;;;6.78;2.38;;;3.60;99.90;;;;;;5038957;28;20052;-73
2022/04/08 04:31:36;;;;;;;4.15;2.00;;;3.70;99.90;;;;;;5054376;28;20052;-73
2022/04/08 04:34:02;;;;;;;5.63;2.28;;;3.70;99.90;;;;;;5046870;28;20535;-73
2022/04/08 04:36:27;;;;;;;7.63;2.60;;;3.70;99.90;;;;;;5064464;28;20131;-75
2022/04/08 04:38:53;;;;;;;7.30;2.35;;;3.80;99.90;;;;;;5056509;28;20029;-73
2022/04/08 04:41:18;;;;;;;9.20;2.30;;;3.80;99.90;;;;;;5055884;28;20127;-72
2022/04/08 04:43:44;;;;;;;7.45;3.03;;;3.70;99.90;;;;;;5059029;28;20029;-75
2022/04/08 04:46:09;;;;;;;8.88;3.05;;;3.70;99.90;;;;;;5064157;28;20044;-74
2022/04/08 04:48:35;;;;;;;8.43;2.58;;;3.70;99.90;;;;;;5075952;28;20044;-73
2022/04/08 04:51:00;;;;;;;6.13;2.30;;;3.60;99.90;;;;;;5066496;28;20041;-73
2022/04/08 04:53:26;;;;;;;6.90;1.95;;;3.60;99.90;;;;;;5055462;28;20041;-74
2022/04/08 04:55:54;;;;;;;11.73;2.97;;;3.60;99.90;;;;;;5056027;28;20036;-73
2022/04/08 04:58:20;;;;;;;9.82;3.20;;;3.60;99.90;;;;;;5038459;28;20045;-73
2022/04/08 05:00:45;;;;;;;7.97;2.83;;;3.60;99.90;;;;;;5055364;28;20045;-73
2022/04/08 05:03:12;;;;;;;9.65;2.35;;;3.60;99.90;;;;;;5055349;28;20447;-73
2022/04/08 05:05:38;;;;;;;10.27;3.10;;;3.60;99.90;;;;;;5055216;28;20484;-73
2022/04/08 05:08:04;;;;;;;14.50;3.40;;;3.60;99.90;;;;;;5055490;28;20057;-73
2022/04/08 05:10:33;;;;;;;6.10;2.20;;;3.60;99.90;;;;;;5054942;28;20053;-73
2022/04/08 05:12:59;;;;;;;9.75;2.92;;;3.70;99.90;;;;;;5055336;28;20036;-73
2022/04/08 05:15:26;;;;;;;9.20;3.17;;;3.70;99.90;;;;;;5037797;28;20040;-74
2022/04/08 05:17:52;;;;;;;7.75;2.55;;;3.70;99.90;;;;;;5055406;28;20048;-73
2022/04/08 05:20:18;;;;;;;5.63;3.03;;;3.80;99.90;;;;;;5055199;28;20041;-73
2022/04/08 05:22:43;;;;;;;14.30;3.00;;;3.80;99.90;;;;;;5055556;28;20041;-73
2022/04/08 05:25:10;;;;;;;10.27;3.35;;;3.80;99.90;;;;;;5054684;28;20041;-73
2022/04/08 05:27:43;;;;;;;10.57;3.65;;;3.80;99.90;;;;;;5055221;28;20037;-73
2022/04/08 05:30:18;;;;;;;9.13;3.00;;;3.80;99.90;;;;;;5054602;28;20066;-73
2022/04/08 05:32:47;;;;;;;9.48;2.97;;;3.80;99.90;;;;;;5055185;28;20431;-73
2022/04/08 05:35:17;;;;;;;10.27;2.90;;;4.00;99.90;;;;;;5054577;28;20045;-74
2022/04/08 05:37:46;;;;;;;7.35;3.08;;;4.00;99.90;;;;;;5054782;28;20367;-73
2022/04/08 05:40:14;;;;;;;21.17;3.38;;;4.00;99.90;;;;;;5055122;28;20428;-74
2022/04/08 05:42:40;;;;;;;14.30;4.10;;;4.00;99.90;;;;;;5055191;28;20510;-72
2022/04/08 05:45:09;;;;;;;12.35;3.58;;;4.00;99.90;;;;;;5055335;28;20470;-73
2022/04/08 05:47:35;;;;;;;19.27;3.33;;;4.00;99.90;;;;;;5053758;28;20055;-73
2022/04/08 05:50:01;;;;;;;13.90;3.65;;;4.10;99.90;;;;;;5053576;28;20045;-73
2022/04/08 05:52:27;;;;;;;11.65;4.05;;;4.20;99.90;;;;;;5054038;28;20506;-72
2022/04/08 05:54:52;;;;;;;22.42;4.07;;;4.20;99.90;;;;;;5054495;28;20136;-73
2022/04/08 05:57:19;;;;;;;16.70;5.30;;;4.30;99.90;;;;;;5054855;28;20080;-72
2022/04/08 05:59:45;;;;;;;14.90;3.88;;;4.40;99.90;;;;;;5037612;28;20076;-73
2022/04/08 06:02:11;;;;;;;17.30;4.50;;;4.40;99.90;;;;;;5054168;28;20473;-73
2022/04/08 06:04:36;;;;;;;21.13;4.07;;;4.60;99.90;;;;;;5054587;28;20080;-73
2022/04/08 06:07:02;;;;;;;13.02;4.10;;;4.60;99.90;;;;;;5036858;28;20041;-73
2022/04/08 06:09:28;;;;;;;18.17;3.95;;;4.70;99.90;;;;;;5052936;28;20040;-74
2022/04/08 06:11:53;;;;;;;11.80;3.28;;;4.80;99.90;;;;;;5054664;28;20041;-73
2022/04/08 06:14:19;;;;;;;17.45;3.72;;;4.90;99.90;;;;;;5054442;28;20115;-73
2022/04/08 06:16:44;;;;;;;16.58;3.38;;;4.90;99.90;;;;;;5037211;28;20076;-73
2022/04/08 06:19:10;;;;;;;24.10;4.88;;;5.00;99.90;;;;;;5054942;28;20048;-73
2022/04/08 06:21:35;;;;;;;12.50;5.15;;;5.20;99.90;;;;;;5054771;28;20053;-73
2022/04/08 06:24:01;;;;;;;10.13;3.47;;;5.20;99.90;;;;;;5053895;28;20045;-74
2022/04/08 06:26:26;;;;;;;8.80;2.35;;;5.30;99.90;;;;;;5053950;28;20045;-73
2022/04/08 06:28:52;;;;;;;10.95;2.47;;;5.30;99.90;;;;;;5054687;28;20041;-73
2022/04/08 06:31:17;;;;;;;14.55;4.18;;;5.20;99.90;;;;;;5036169;28;20340;-75
2022/04/08 06:33:43;;;;;;;11.27;2.33;;;5.20;99.90;;;;;;5054494;28;20068;-72
2022/04/08 06:36:09;;;;;;;7.43;2.63;;;5.20;99.90;;;;;;5036573;28;20124;-72
2022/04/08 06:38:34;;;;;;;9.63;2.22;;;5.20;99.90;;;;;;5058251;28;20132;-73
2022/04/08 06:41:00;;;;;;;10.38;2.95;;;5.20;99.90;;;;;;5057700;28;20048;-72
2022/04/08 06:43:25;;;;;;;10.85;2.55;;;5.30;99.90;;;;;;5058299;28;20205;-74
2022/04/08 06:45:51;;;;;;;11.30;2.50;;;5.30;99.90;;;;;;5058057;28;20049;-74
2022/04/08 06:48:16;;;;;;;10.20;2.42;;;5.40;99.90;;;;;;5067343;28;20464;-73
2022/04/08 06:50:42;;;;;;;11.32;2.50;;;5.50;99.90;;;;;;5060940;28;20033;-72
2022/04/08 06:53:07;;;;;;;15.90;2.85;;;5.70;99.90;;;;;;5048487;28;20041;-73
2022/04/08 06:55:33;;;;;;;13.57;2.88;;;5.80;99.90;;;;;;5058290;28;20526;-71
2022/04/08 06:58:01;;;;;;;11.98;2.72;;;5.90;99.90;;;;;;5040411;28;20036;-72
2022/04/08 07:00:27;;;;;;;8.60;2.60;;;5.90;99.90;;;;;;5057503;28;20049;-73
2022/04/08 07:02:53;;;;;;;14.45;2.83;;;6.00;99.90;;;;;;5057007;28;20086;-73
2022/04/08 07:05:18;;;;;;;18.38;2.90;;;5.90;99.90;;;;;;5056523;28;20044;-76
2022/04/08 07:07:47;;;;;;;11.90;2.75;;;5.90;99.90;;;;;;5040085;28;20040;-75
2022/04/08 07:10:13;;;;;;;20.38;3.25;;;5.70;99.90;;;;;;5058117;28;20106;-73
2022/04/08 07:12:39;;;;;;;9.38;3.03;;;5.60;99.90;;;;;;5057971;28;20037;-73
2022/04/08 07:15:06;;;;;;;9.70;3.10;;;5.60;99.90;;;;;;5057086;28;20359;-74
2022/04/08 07:17:36;;;;;;;11.25;3.13;;;5.70;99.90;;;;;;5058249;28;20106;-73
2022/04/08 07:20:04;;;;;;;12.98;3.47;;;5.80;99.90;;;;;;5057781;28;20518;-73
2022/04/08 07:22:30;;;;;;;11.70;2.50;;;5.80;99.90;;;;;;5057573;28;20055;-74
2022/04/08 07:24:56;;;;;;;12.23;2.67;;;5.90;99.90;;;;;;5057497;28;20045;-73
2022/04/08 07:27:23;;;;;;;7.03;2.08;;;6.00;99.90;;;;;;5057392;28;20157;-73
2022/04/08 07:29:50;;;;;;;8.18;3.28;;;6.00;99.90;;;;;;5056875;28;20391;-73
2022/04/08 07:32:20;;;;;;;11.35;2.20;;;6.10;99.90;;;;;;5056758;28;20067;-73
2022/04/08 07:34:50;;;;;;;8.50;2.72;;;6.20;99.90;;;;;;5057375;28;20071;-73
2022/04/08 07:37:37;;;;;;;9.25;2.38;;;6.30;99.90;;;;;;5057617;28;20429;-73
2022/04/08 07:40:10;;;;;;;10.13;3.22;;;6.30;99.90;;;;;;5057619;28;20099;-73
2022/04/08 07:42:36;;;;;;;10.43;2.43;;;6.30;99.90;;;;;;5057781;28;20454;-73
2022/04/08 07:45:03;;;;;;;10.60;2.78;;;6.30;99.90;;;;;;5057324;28;20339;-74
2022/04/08 07:47:29;;;;;;;9.30;2.50;;;6.40;99.90;;;;;;5056953;28;20043;-73
2022/04/08 07:49:57;;;;;;;8.77;2.10;;;6.40;99.90;;;;;;5038503;28;20044;-73
2022/04/08 07:52:22;;;;;;;10.85;2.30;;;6.50;99.90;;;;;;5057061;28;20048;-73
2022/04/08 07:54:48;;;;;;;10.55;2.75;;;6.50;99.90;;;;;;5059588;28;20040;-73
2022/04/08 07:57:13;;;;;;;13.23;2.70;;;6.50;99.90;;;;;;5065664;28;20093;-73
2022/04/08 07:59:39;;;;;;;6.70;2.83;;;6.50;99.90;;;;;;5077287;28;20036;-73
2022/04/08 08:02:07;;;;;;;12.73;2.92;;;6.50;99.90;;;;;;5059711;28;20124;-71
2022/04/08 08:04:32;;;;;;;9.18;2.53;;;6.50;99.90;;;;;;5077168;28;20044;-72
2022/04/08 08:06:58;;;;;;;10.80;2.47;;;6.50;99.90;;;;;;5065862;28;20056;-72
2022/04/08 08:09:23;;;;;;;7.75;2.05;;;6.60;99.90;;;;;;5056540;28;20451;-72
2022/04/08 08:11:49;;;;;;;10.63;2.55;;;6.70;99.90;;;;;;5056937;28;20041;-73
2022/04/08 08:14:15;;;;;;;6.47;1.92;;;6.80;99.90;;;;;;5056531;28;20119;-74
2022/04/08 08:16:40;;;;;;;6.80;2.10;;;6.90;99.90;;;;;;5056736;28;20033;-72
2022/04/08 08:19:06;;;;;;;9.35;2.10;;;6.90;99.90;;;;;;5056860;28;20350;-72
2022/04/08 08:21:31;;;;;;;11.43;1.73;;;7.00;99.90;;;;;;5056820;28;20139;-72
2022/04/08 08:23:57;;;;;;;7.88;3.05;;;6.90;99.90;;;;;;5055701;28;20049;-76
2022/04/08 08:26:22;;;;;;;7.25;2.78;;;7.00;99.90;;;;;;5056694;28;20103;-75
2022/04/08 08:28:48;;;;;;;6.30;2.15;;;7.00;99.90;;;;;;5035213;28;20477;-75
2022/04/08 08:31:16;;;;;;;4.05;1.80;;;7.00;99.90;;;;;;5037684;28;20045;-75
2022/04/08 08:33:43;;;;;;;10.15;2.22;;;6.90;99.90;;;;;;5056636;28;20328;-74
2022/04/08 08:36:09;;;;;;;9.77;2.13;;;6.80;99.90;;;;;;5055734;28;20056;-75
2022/04/08 08:38:34;;;;;;;9.05;2.17;;;7.00;99.90;;;;;;5052839;28;20049;-75
2022/04/08 08:41:01;;;;;;;7.65;2.63;;;7.10;99.90;;;;;;5055772;28;20328;-74
2022/04/08 08:43:27;;;;;;;8.82;2.33;;;7.00;99.90;;;;;;5056107;28;20036;-75
2022/04/08 08:45:56;;;;;;;12.18;2.90;;;6.90;99.90;;;;;;5056292;28;20044;-75
2022/04/08 08:48:22;;;;;;;7.18;1.95;;;7.10;99.90;;;;;;5056439;28;20036;-75
2022/04/08 08:50:50;;;;;;;8.35;2.58;;;7.20;99.90;;;;;;5056031;28;20044;-75
2022/04/08 08:53:20;;;;;;;8.88;1.70;;;7.20;99.90;;;;;;5055803;28;20045;-75
2022/04/08 08:55:49;;;;;;;12.32;2.53;;;7.10;99.90;;;;;;5055520;28;20037;-74
2022/04/08 08:58:15;;;;;;;12.52;2.70;;;7.20;99.90;;;;;;5038745;28;20055;-76
2022/04/08 09:00:41;;;;;;;8.73;2.28;;;7.40;99.90;;;;;;5050896;28;20041;-74
2022/04/08 09:03:09;;;;;;;7.63;1.83;;;7.60;99.90;;;;;;5056093;28;20082;-75
2022/04/08 09:05:43;;;;;;;5.55;2.15;;;7.60;99.90;;;;;;5055607;28;20328;-74
2022/04/08 09:08:10;;;;;;;;;;;7.60;99.90;;;;;;5056261;28;20056;-75
2022/04/08 09:10:50;;;;;;;9.48;2.05;;;7.70;99.90;;;;;;5052803;28;19928;-75
2022/04/08 09:13:22;;;;;;;8.20;2.03;;;7.80;99.90;;;;;;5037952;28;20033;-75
2022/04/08 09:16:00;;;;;;;11.27;2.70;;;7.90;99.90;;;;;;5056697;28;20037;-75
2022/04/08 09:18:30;;;;;;;9.30;2.03;;;7.90;99.90;;;;;;5036401;28;20363;-75
2022/04/08 09:20:59;;;;;;;10.38;2.30;;;7.70;99.90;;;;;;5035491;28;20456;-75
2022/04/08 09:23:26;;;;;;;7.07;2.10;;;7.80;99.90;;;;;;5018529;28;20049;-75
2022/04/08 09:26:05;;;;;;;4.60;1.73;;;7.80;99.90;;;;;;5035724;28;20360;-75
2022/04/08 09:28:35;;;;;;;8.95;2.05;;;7.60;99.90;;;;;;5049993;28;20051;-75
2022/04/08 09:31:03;;;;;;;6.15;2.17;;;7.70;99.90;;;;;;5054375;28;20036;-76
2022/04/08 09:33:29;;;;;;;6.38;1.67;;;7.80;99.90;;;;;;5055744;28;20114;-75
2022/04/08 09:35:57;;;;;;;6.40;2.00;;;7.80;99.90;;;;;;5037475;28;20053;-75
2022/04/08 09:38:27;;;;;;;10.65;2.05;;;7.80;99.90;;;;;;5055238;28;20111;-75
2022/04/08 09:41:06;;;;;;;9.25;2.55;;;7.80;99.90;;;;;;5053871;28;20123;-75
2022/04/08 09:43:33;;;;;;;9.30;2.45;;;7.90;99.90;;;;;;5054777;28;20106;-75
2022/04/08 09:46:16;;;;;;;4.82;2.25;;;8.10;99.90;;;;;;5055178;28;20069;-76
2022/04/08 09:48:43;;;;;;;10.88;2.80;;;8.20;99.90;;;;;;5053847;28;20044;-75
2022/04/08 09:51:15;;;;;;;14.75;2.85;;;8.10;99.90;;;;;;5055058;28;20040;-74
2022/04/08 09:53:41;;;;;;;11.52;2.65;;;7.90;99.90;;;;;;5036893;28;20064;-75
2022/04/08 09:56:12;;;;;;;13.93;3.47;;;8.00;99.90;;;;;;5054765;28;20094;-75
2022/04/08 09:58:42;;;;;;;11.63;3.20;;;7.70;99.90;;;;;;5055298;28;20051;-75
2022/04/08 10:01:08;;;;;;;12.02;2.45;;;7.60;99.90;;;;;;5054537;28;20045;-75
2022/04/08 10:03:34;;;;;;;9.48;2.60;;;7.50;99.90;;;;;;5054306;28;20076;-75
2022/04/08 10:06:00;;;;;;;8.50;2.40;;;7.40;99.90;;;;;;5054193;28;20119;-75
2022/04/08 10:08:27;;;;;;;11.82;3.35;;;7.20;99.90;;;;;;5050021;28;20037;-75
2022/04/08 10:11:19;;;;;;;7.18;2.72;;;7.30;99.90;;;;;;5017502;28;20183;-76
2022/04/08 10:13:58;;;;;;;12.85;3.28;;;7.50;99.90;;;;;;5034140;28;20049;-76
2022/04/08 10:16:24;;;;;;;12.10;3.20;;;7.70;99.90;;;;;;5034599;28;20049;-75
2022/04/08 10:18:52;;;;;;;6.50;2.17;;;7.70;99.90;;;;;;5034368;28;20045;-74
2022/04/08 10:21:18;;;;;;;7.05;1.73;;;7.80;99.90;;;;;;5063882;28;20037;-75
2022/04/08 10:23:52;;;;;;;7.95;2.17;;;7.80;99.90;;;;;;5051188;28;20033;-75
2022/04/08 10:26:22;;;;;;;5.80;2.20;;;7.70;99.90;;;;;;5054379;28;20436;-74
2022/04/08 10:28:50;;;;;;;10.93;2.30;;;7.60;99.90;;;;;;5054531;28;20358;-75
2022/04/08 10:31:26;;;;;;;16.63;3.17;;;7.40;99.90;;;;;;5054223;28;20041;-75
2022/04/08 10:34:00;;;;;;;9.68;2.92;;;7.40;99.90;;;;;;5036808;28;20056;-75
2022/04/08 10:36:36;;;;;;;11.93;2.63;;;7.20;99.90;;;;;;5050104;28;20060;-75
2022/04/08 10:39:16;;;;;;;5.93;2.08;;;7.30;99.90;;;;;;5036744;28;20475;-75
2022/04/08 10:41:54;;;;;;;9.13;2.40;;;7.20;99.90;;;;;;5034064;28;20103;-75
2022/04/08 10:44:32;;;;;;;14.25;2.92;;;7.50;99.90;;;;;;5053934;28;20041;-76
2022/04/08 10:47:00;;;;;;;4.90;1.67;;;7.50;99.90;;;;;;5054671;28;20051;-77
2022/04/08 10:49:26;;;;;;;4.78;1.35;;;7.80;99.90;;;;;;5054162;28;20064;-76
2022/04/08 10:51:52;;;;;;;5.38;1.50;;;7.90;99.90;;;;;;5054228;28;20116;-77
2022/04/08 10:54:19;;;;;;;6.03;1.90;;;7.90;99.90;;;;;;5054105;28;20358;-76
2022/04/08 10:56:58;;;;;;;9.27;2.38;;;7.90;99.90;;;;;;5051704;28;20481;-76
2022/04/08 10:59:26;;;;;;;7.03;1.27;;;8.20;99.90;;;;;;5034110;28;20504;-74
2022/04/08 11:02:02;;;;;;;8.40;1.55;;;8.10;99.90;;;;;;5034762;28;20053;-75
2022/04/08 11:04:29;;;;;;;6.43;2.20;;;8.10;99.90;;;;;;5053891;28;20391;-75
2022/04/08 11:06:55;;;;;;;10.65;2.78;;;8.10;99.90;;;;;;5054031;28;20043;-75
2022/04/08 11:09:22;;;;;;;11.43;2.40;;;8.00;99.90;;;;;;5054064;28;20083;-75
2022/04/08 11:11:53;;;;;;;4.30;1.65;;;8.00;99.90;;;;;;5054315;28;20049;-74
2022/04/08 11:14:19;;;;;;;8.05;2.22;;;8.20;99.90;;;;;;5053830;28;20037;-74
2022/04/08 11:16:47;;;;;;;8.40;1.92;;;8.50;99.90;;;;;;5054049;28;20450;-75
2022/04/08 11:19:13;;;;;;;6.43;2.13;;;8.40;99.90;;;;;;5054157;28;20060;-74
2022/04/08 11:21:40;;;;;;;8.77;2.92;;;8.30;99.90;;;;;;5036743;28;20033;-74
2022/04/08 11:24:09;;;;;;;9.77;2.10;;;8.10;99.90;;;;;;5056569;28;20398;-75
2022/04/08 11:27:00;;;;;;;6.63;2.63;;;8.10;99.90;;;;;;5057556;28;20041;-75
2022/04/08 11:29:27;;;;;;;21.13;2.72;;;8.20;99.90;;;;;;5036567;28;20064;-75
2022/04/08 11:32:05;;;;;;;8.10;2.45;;;8.00;99.90;;;;;;5039496;28;20044;-75
2022/04/08 11:34:31;;;;;;;11.00;2.33;;;8.10;99.90;;;;;;5055814;28;20052;-75
2022/04/08 11:36:57;;;;;;;7.85;2.03;;;7.80;99.90;;;;;;5057457;28;20350;-75
2022/04/08 11:39:23;;;;;;;8.00;1.92;;;8.20;99.90;;;;;;5056910;28;20049;-75
2022/04/08 11:41:55;;;;;;;7.97;2.10;;;8.40;99.90;;;;;;5057272;28;20047;-75
2022/04/08 11:44:22;;;;;;;8.85;2.25;;;8.60;99.90;;;;;;5057130;28;20037;-75
2022/04/08 11:46:48;;;;;;;10.43;2.15;;;8.50;99.90;;;;;;5039314;28;20120;-75
2022/04/08 11:49:14;;;;;;;8.93;2.38;;;8.40;99.90;;;;;;5063864;28;20044;-75
2022/04/08 11:51:40;;;;;;;12.40;3.25;;;8.20;99.90;;;;;;5057217;28;20442;-75
2022/04/08 11:54:06;;;;;;;14.45;3.75;;;8.40;99.90;;;;;;5057149;28;20108;-75
2022/04/08 11:56:32;;;;;;;7.85;2.17;;;8.10;99.90;;;;;;5057273;28;20041;-75
2022/04/08 11:59:08;;;;;;;9.98;2.70;;;8.40;99.90;;;;;;5056701;28;20055;-75
2022/04/08 12:01:38;;;;;;;13.40;2.05;;;8.60;99.90;;;;;;5057271;28;20044;-75
2022/04/08 12:04:07;;;;;;;7.95;2.33;;;8.60;99.90;;;;;;5056731;28;20049;-75
2022/04/08 12:06:43;;;;;;;7.32;1.90;;;8.70;99.90;;;;;;5053767;28;20077;-76
2022/04/08 12:09:10;;;;;;;14.80;3.38;;;8.50;99.90;;;;;;5039094;28;20041;-76
2022/04/08 12:11:37;;;;;;;8.65;2.20;;;8.50;99.90;;;;;;5056672;28;20040;-75
2022/04/08 12:14:06;;;;;;;10.98;2.40;;;8.50;99.90;;;;;;5056780;28;20035;-73
2022/04/08 12:16:31;;;;;;;11.77;2.53;;;8.60;99.90;;;;;;5056476;28;20040;-75
2022/04/08 12:18:57;;;;;;;12.57;1.88;;;8.40;99.90;;;;;;5056384;28;20041;-75
2022/04/08 12:21:25;;;;;;;6.50;1.50;;;8.60;99.90;;;;;;5038931;28;20041;-75
2022/04/08 12:23:51;;;;;;;9.82;1.98;;;8.60;99.90;;;;;;5056572;28;20343;-75
2022/04/08 12:26:18;;;;;;;10.57;1.92;;;8.80;99.90;;;;;;5039137;28;20451;-75
2022/04/08 12:28:44;;;;;;;6.82;2.28;;;8.50;99.90;;;;;;5056350;28;20040;-76
2022/04/08 12:31:21;;;;;;;8.07;1.98;;;8.40;99.90;;;;;;5056477;28;20160;-75
2022/04/08 12:33:47;;;;;;;10.10;2.50;;;8.30;99.90;;;;;;5056142;28;20083;-75
2022/04/08 12:36:13;;;;;;;10.80;2.13;;;8.40;99.90;;;;;;5055615;28;20052;-75
2022/04/08 12:38:40;;;;;;;8.40;1.73;;;8.70;99.90;;;;;;5054680;28;20333;-75
2022/04/08 12:41:06;;;;;;;7.55;1.63;;;8.90;99.90;;;;;;5057039;28;20033;-75
2022/04/08 12:43:32;;;;;;;8.10;2.90;;;8.90;99.90;;;;;;5056450;28;20052;-75
2022/04/08 12:45:58;;;;;;;9.63;2.10;;;9.00;99.90;;;;;;5056212;28;20041;-74
2022/04/08 12:48:24;;;;;;;9.10;2.13;;;8.90;99.90;;;;;;5031222;28;20051;-74
2022/04/08 12:50:49;;;;;;;14.90;2.50;;;8.90;99.90;;;;;;5018862;28;20072;-73
2022/04/08 12:53:15;;;;;;;10.93;2.45;;;8.90;99.90;;;;;;5035884;28;20092;-74